LIML METAR and TAF | Updated Today

LIML METAR

Milano Linate Airport

Observation time: 25 min. ago

LIML 061820Z 09010KT 9999 BKN060 04/M01 Q1032 NOSIG

Need help? Read our tutorial on how to read METARs or read the parsed version below.

Milano Linate Airport (LIML) METAR

  • Weather conditions on Mon, 06 Feb 2023 18:20:00 +0000 (25 min. ago):
  • Present conditions: Dry
  • Clouds: Broken sky at 1829 meters
  • Visibility: Greater than 10 km
  • Wind: 90 degrees at 10 knots
  • Temperature: 4 celsius
  • Dew point: -1 celsius
  • Pressure: 1032 millibars
  • Remarks: None


Useful to know...

LIML TAF

Milano Linate Airport

TAF LIML 061700Z 0618/0718 10010KT 9999 BKN050 BECMG 0712/0714 24006KT
Observation time: 1:45 hr. ago
Need help? Read our tutorial on how to read TAFs or read the parsed version below.

Parsed version of TAF for Milano Linate Airport (LIML)

  • From 06 February at 18:00 UTC, to day 07 of the month at 18:00 UTC
  • Clouds: Broken sky at 1524 meters
  • Visibility: Greater than 10 km
  • Wind: 100 degrees at 10
  • Expected to arise soon, from 07 February at 12:00 UTC, to day 07 of the month at 14:00 UTC
  • Wind: 240 degrees at 6